Terminal Aerodrome Forecast
Issued by NWS

Home | Current Version | Previous Version | Text Only | Print | Product List | Glossary On
Versions: 1 2 3 4 5 6 7 8 9 10 11 12 13 14 15 16 17 18
373
FTUS43 KGRR 090540
TAFBTL
TAF
KBTL 090540Z 0906/1006 27008KT 1SM -SHSN BR BKN009
     FM091200 28008KT 3SM -SHSN BR OVC025
     FM091800 28011KT 5SM -SHSN OVC025=

USA.gov is the U.S. government's official web portal to all federal, state and local government web resources and services.